createdAt,value
2019-02-06T00:00:42.110Z,99.90
2019-02-06T00:03:14.386Z,99.90
2019-02-06T00:05:44.766Z,99.90
2019-02-06T00:08:15.291Z,99.90
2019-02-06T00:10:45.657Z,99.90
2019-02-06T00:13:16.059Z,99.90
2019-02-06T00:15:46.398Z,99.90
2019-02-06T00:18:16.771Z,99.90
2019-02-06T00:20:47.139Z,99.90
2019-02-06T00:23:17.534Z,99.90
2019-02-06T00:25:47.890Z,99.90
2019-02-06T00:28:18.272Z,99.90
2019-02-06T00:30:49.110Z,99.90
2019-02-06T00:33:19.487Z,99.90
2019-02-06T00:35:49.841Z,99.90
2019-02-06T00:38:20.892Z,99.90
2019-02-06T00:40:51.279Z,99.90
2019-02-06T00:43:21.645Z,99.90
2019-02-06T00:45:52.032Z,99.90
2019-02-06T00:48:22.387Z,99.90
2019-02-06T00:50:52.768Z,99.90
2019-02-06T00:53:23.130Z,99.90
2019-02-06T00:55:53.508Z,99.90
2019-02-06T00:58:24.247Z,99.90
2019-02-06T01:00:54.627Z,99.90
2019-02-06T01:03:24.980Z,99.90
2019-02-06T01:05:55.355Z,99.90
2019-02-06T01:08:25.716Z,99.90
2019-02-06T01:10:56.159Z,99.90
2019-02-06T01:13:26.527Z,99.90
2019-02-06T01:15:56.910Z,99.90
2019-02-06T01:18:27.272Z,99.90
2019-02-06T01:20:57.648Z,99.90
2019-02-06T01:23:28.305Z,99.90
2019-02-06T01:25:58.664Z,99.90
2019-02-06T01:28:29.035Z,99.90
2019-02-06T01:31:01.051Z,99.90
2019-02-06T01:33:31.411Z,99.90
2019-02-06T01:36:01.791Z,99.90
2019-02-06T01:38:32.145Z,99.90
2019-02-06T01:41:03.002Z,99.90
2019-02-06T01:43:33.366Z,99.90
2019-02-06T01:46:03.744Z,99.90
2019-02-06T01:48:34.104Z,99.90
2019-02-06T01:51:04.488Z,99.90
2019-02-06T01:53:34.847Z,99.90
2019-02-06T01:56:05.771Z,99.90
2019-02-06T01:58:36.131Z,99.90
2019-02-06T02:01:07.188Z,99.90
2019-02-06T02:03:37.545Z,99.90
2019-02-06T02:06:07.925Z,99.90
2019-02-06T02:08:39.924Z,99.90
2019-02-06T02:11:10.305Z,99.90
2019-02-06T02:13:40.668Z,99.90
2019-02-06T02:16:11.058Z,99.90
2019-02-06T02:18:41.422Z,99.90
2019-02-06T02:21:11.807Z,99.90
2019-02-06T02:23:42.439Z,99.90
2019-02-06T02:26:12.820Z,99.90
2019-02-06T02:28:43.182Z,99.90
2019-02-06T02:31:13.637Z,99.90
2019-02-06T02:33:44.023Z,99.90
2019-02-06T02:36:16.450Z,99.80
2019-02-06T02:38:46.648Z,99.90
2019-02-06T02:41:17.008Z,99.70
2019-02-06T02:43:47.394Z,99.90
2019-02-06T02:46:17.753Z,99.90
2019-02-06T02:48:48.203Z,99.90
2019-02-06T02:51:18.599Z,99.90
2019-02-06T02:53:48.986Z,99.90
2019-02-06T02:56:19.346Z,99.90
2019-02-06T02:58:49.735Z,99.90
2019-02-06T03:01:27.806Z,99.90
2019-02-06T03:04:02.529Z,99.90
2019-02-06T03:06:32.884Z,99.90
2019-02-06T03:09:03.571Z,99.90
2019-02-06T03:11:33.930Z,99.90
2019-02-06T03:14:04.479Z,99.90
2019-02-06T03:16:47.794Z,99.90
2019-02-06T03:19:18.174Z,99.90
2019-02-06T03:21:48.535Z,99.90
2019-02-06T03:24:18.918Z,99.90
2019-02-06T03:26:49.285Z,99.90
2019-02-06T03:29:19.663Z,99.90
2019-02-06T03:31:50.021Z,99.90
2019-02-06T03:34:20.389Z,99.90
2019-02-06T03:36:50.769Z,99.90
2019-02-06T03:39:21.122Z,99.90
2019-02-06T03:41:51.783Z,99.90
2019-02-06T03:44:22.140Z,99.90
2019-02-06T03:46:52.529Z,99.90
2019-02-06T03:49:22.889Z,99.90
2019-02-06T03:51:53.276Z,99.90
2019-02-06T03:54:23.634Z,99.90
2019-02-06T03:56:54.287Z,99.90
2019-02-06T03:59:24.640Z,99.90
2019-02-06T04:01:55.020Z,99.90
2019-02-06T04:04:25.561Z,99.90
2019-02-06T04:07:00.892Z,99.90
2019-02-06T04:09:28.018Z,99.90
2019-02-06T04:11:58.931Z,99.90
2019-02-06T04:14:29.305Z,99.90
2019-02-06T04:16:59.685Z,99.90
2019-02-06T04:19:30.042Z,99.90
2019-02-06T04:22:00.422Z,99.90
2019-02-06T04:24:30.784Z,99.90
2019-02-06T04:27:01.171Z,99.90
2019-02-06T04:29:31.524Z,99.90
2019-02-06T04:32:01.905Z,99.90
2019-02-06T04:34:32.262Z,99.90
2019-02-06T04:37:06.758Z,99.90
2019-02-06T04:39:34.972Z,99.90
2019-02-06T04:42:05.528Z,99.90
2019-02-06T04:44:35.895Z,99.90
2019-02-06T04:47:06.278Z,99.90
2019-02-06T04:49:36.630Z,99.90
2019-02-06T04:52:07.183Z,99.90
2019-02-06T04:54:37.587Z,99.90
2019-02-06T04:57:09.539Z,99.90
2019-02-06T04:59:39.967Z,99.90
2019-02-06T05:02:10.416Z,99.90
2019-02-06T05:04:41.160Z,99.90
2019-02-06T05:07:19.466Z,99.90
2019-02-06T05:09:43.595Z,99.90
2019-02-06T05:12:13.976Z,99.90
2019-02-06T05:14:44.338Z,99.90
2019-02-06T05:17:14.725Z,99.90
2019-02-06T05:19:45.361Z,99.90
2019-02-06T05:22:15.842Z,99.90
2019-02-06T05:24:46.180Z,99.90
2019-02-06T05:27:16.561Z,99.90
2019-02-06T05:29:46.928Z,99.90
2019-02-06T05:32:17.401Z,99.90
2019-02-06T05:34:47.735Z,99.90
2019-02-06T05:37:18.116Z,99.90
2019-02-06T05:39:48.486Z,99.90
2019-02-06T05:42:18.923Z,99.90
2019-02-06T05:44:49.248Z,99.90
2019-02-06T05:47:20.013Z,99.90
2019-02-06T05:49:50.385Z,99.90
2019-02-06T05:52:20.761Z,99.90
2019-02-06T05:54:51.123Z,99.90
2019-02-06T05:57:21.515Z,99.90
2019-02-06T05:59:51.879Z,99.90
2019-02-06T06:02:22.744Z,99.90
2019-02-06T06:04:53.107Z,99.90
2019-02-06T06:07:23.492Z,99.90
2019-02-06T06:09:53.851Z,99.90
2019-02-06T06:12:24.241Z,99.90
2019-02-06T06:14:54.612Z,99.90
2019-02-06T06:17:25.279Z,99.90
2019-02-06T06:19:55.635Z,99.90
2019-02-06T06:22:26.028Z,99.90
2019-02-06T06:24:56.403Z,99.90
2019-02-06T06:27:26.784Z,99.90
2019-02-06T06:29:57.148Z,99.90
2019-02-06T06:32:27.824Z,99.90
2019-02-06T06:34:58.219Z,99.90
2019-02-06T06:37:28.583Z,99.90
2019-02-06T06:39:59.115Z,99.90
2019-02-06T06:42:30.134Z,99.90
2019-02-06T06:45:00.499Z,99.90
2019-02-06T06:47:30.884Z,99.90
2019-02-06T06:50:01.249Z,99.90
2019-02-06T06:52:31.632Z,99.90
2019-02-06T06:55:02.003Z,99.90
2019-02-06T06:57:32.382Z,99.90
2019-02-06T07:00:03.016Z,99.90
2019-02-06T07:02:34.468Z,99.90
2019-02-06T07:05:08.836Z,99.90
2019-02-06T07:07:39.249Z,99.90
2019-02-06T07:10:17.444Z,99.90
2019-02-06T07:12:47.813Z,99.90
2019-02-06T07:15:33.260Z,99.90
2019-02-06T07:18:03.846Z,99.90
2019-02-06T07:20:34.209Z,99.90
2019-02-06T07:23:05.031Z,99.90
2019-02-06T07:25:35.387Z,99.90
2019-02-06T07:28:05.839Z,99.90
2019-02-06T07:30:37.207Z,99.90
2019-02-06T07:33:07.966Z,99.90
2019-02-06T07:35:38.331Z,99.90
2019-02-06T07:38:11.650Z,99.90
2019-02-06T07:40:40.780Z,99.90
2019-02-06T07:43:11.160Z,99.90
2019-02-06T07:45:41.518Z,99.90
2019-02-06T07:48:11.897Z,99.90
2019-02-06T07:50:42.535Z,99.90
2019-02-06T07:53:12.915Z,99.90
2019-02-06T07:55:43.272Z,99.90
2019-02-06T07:58:13.654Z,99.90
2019-02-06T08:00:44.017Z,99.90
2019-02-06T08:03:14.403Z,99.90
2019-02-06T08:05:44.783Z,99.90
2019-02-06T08:08:15.158Z,99.90
2019-02-06T08:10:45.518Z,99.90
2019-02-06T08:13:15.897Z,99.90
2019-02-06T08:15:46.258Z,99.90
2019-02-06T08:18:16.915Z,99.90
2019-02-06T08:20:47.279Z,99.90
2019-02-06T08:23:17.654Z,99.90
2019-02-06T08:25:48.016Z,99.90
2019-02-06T08:28:18.467Z,99.90
2019-02-06T08:30:48.833Z,99.90
2019-02-06T08:33:19.415Z,99.90
2019-02-06T08:35:49.834Z,99.90
2019-02-06T08:38:20.250Z,99.90
2019-02-06T08:40:50.625Z,99.90
2019-02-06T08:43:21.077Z,97.30
2019-02-06T08:45:51.428Z,96.00
2019-02-06T08:48:21.850Z,92.10
2019-02-06T08:50:52.300Z,90.50
2019-02-06T08:53:22.679Z,92.30
2019-02-06T08:55:53.431Z,91.50
2019-02-06T08:58:23.895Z,91.90
2019-02-06T09:00:54.738Z,92.80
2019-02-06T09:03:25.122Z,92.20
2019-02-06T09:05:55.481Z,80.20
2019-02-06T09:08:25.871Z,78.20
2019-02-06T09:10:56.222Z,76.90
2019-02-06T09:13:26.609Z,77.10
2019-02-06T09:15:56.967Z,77.30
2019-02-06T09:18:27.371Z,81.60
2019-02-06T09:20:57.719Z,78.10
2019-02-06T09:23:28.104Z,75.70
2019-02-06T09:25:58.488Z,73.60
2019-02-06T09:28:29.361Z,65.50
2019-02-06T09:30:59.743Z,60.70
2019-02-06T09:33:30.141Z,58.60
2019-02-06T09:36:00.571Z,59.90
2019-02-06T09:38:30.945Z,50.80
2019-02-06T09:41:01.320Z,53.00
2019-02-06T09:43:32.027Z,54.90
2019-02-06T09:46:02.412Z,48.40
2019-02-06T09:48:32.798Z,53.10
2019-02-06T09:51:03.160Z,43.10
2019-02-06T09:53:33.558Z,45.80
2019-02-06T09:56:04.021Z,45.00
2019-02-06T09:58:34.396Z,50.10
2019-02-06T10:01:04.784Z,52.60
2019-02-06T10:03:35.162Z,55.30
2019-02-06T10:06:05.557Z,59.30
2019-02-06T10:08:35.931Z,65.60
2019-02-06T10:11:06.702Z,63.80
2019-02-06T10:13:37.068Z,67.80
2019-02-06T10:16:07.466Z,67.40
2019-02-06T10:18:37.832Z,65.60
2019-02-06T10:21:08.979Z,66.50
2019-02-06T10:23:39.352Z,64.00
2019-02-06T10:26:09.922Z,61.40
2019-02-06T10:28:40.295Z,58.60
2019-02-06T10:31:10.689Z,57.70
2019-02-06T10:33:41.063Z,56.30
2019-02-06T10:36:11.458Z,57.60
2019-02-06T10:38:41.838Z,55.00
2019-02-06T10:41:12.299Z,54.90
2019-02-06T10:43:42.672Z,50.60
2019-02-06T10:46:13.130Z,47.90
2019-02-06T10:48:43.955Z,49.00
2019-02-06T10:51:14.841Z,49.40
2019-02-06T10:53:45.497Z,49.00
2019-02-06T10:56:15.887Z,49.00
2019-02-06T10:58:46.253Z,47.90
2019-02-06T11:01:16.736Z,45.00
2019-02-06T11:03:47.111Z,45.50
2019-02-06T11:06:17.504Z,42.30
2019-02-06T11:08:48.043Z,44.70
2019-02-06T11:11:18.435Z,44.30
2019-02-06T11:13:49.863Z,44.30
2019-02-06T11:16:20.379Z,47.00
2019-02-06T11:18:50.746Z,50.90
2019-02-06T11:21:21.618Z,52.70
2019-02-06T11:23:52.195Z,50.70
2019-02-06T11:26:22.564Z,50.50
2019-02-06T11:28:52.967Z,51.80
2019-02-06T11:31:23.345Z,54.40
2019-02-06T11:33:53.730Z,55.50
2019-02-06T11:36:24.537Z,55.30
2019-02-06T11:38:55.543Z,55.40
2019-02-06T11:41:25.910Z,52.60
2019-02-06T11:43:56.292Z,54.80
2019-02-06T11:46:26.660Z,56.90
2019-02-06T11:48:57.437Z,57.30
2019-02-06T11:51:27.874Z,59.70
2019-02-06T11:53:58.258Z,61.70
2019-02-06T11:56:28.628Z,64.50
2019-02-06T11:58:59.187Z,66.80
2019-02-06T12:01:30.021Z,69.30
2019-02-06T12:04:00.394Z,72.20
2019-02-06T12:06:30.825Z,70.50
2019-02-06T12:09:01.271Z,70.70
2019-02-06T12:11:32.638Z,70.30
2019-02-06T12:14:03.064Z,70.30
2019-02-06T12:16:33.716Z,70.20
2019-02-06T12:19:04.458Z,69.10
2019-02-06T12:21:46.994Z,69.50
2019-02-06T12:24:18.350Z,71.10
2019-02-06T12:26:48.713Z,72.30
2019-02-06T12:29:19.271Z,71.10
2019-02-06T12:31:49.649Z,70.00
2019-02-06T12:34:20.028Z,69.40
2019-02-06T12:36:50.398Z,69.80
2019-02-06T12:39:22.768Z,67.50
2019-02-06T12:41:52.859Z,65.60
2019-02-06T12:44:23.639Z,61.90
2019-02-06T12:46:53.980Z,62.50
2019-02-06T12:49:24.365Z,62.10
2019-02-06T12:51:54.731Z,63.50
2019-02-06T12:54:25.138Z,64.90
2019-02-06T12:56:55.485Z,64.70
2019-02-06T12:59:27.227Z,65.10
2019-02-06T13:01:57.592Z,65.30
2019-02-06T13:04:28.041Z,64.10
2019-02-06T13:07:00.253Z,62.70
2019-02-06T13:09:31.484Z,64.30
2019-02-06T13:12:01.895Z,66.80
2019-02-06T13:14:32.285Z,65.20
2019-02-06T13:17:02.663Z,64.70
2019-02-06T13:19:33.068Z,65.60
2019-02-06T13:22:03.609Z,67.10
2019-02-06T13:24:34.013Z,66.60
2019-02-06T13:27:04.835Z,69.10
2019-02-06T13:29:36.299Z,70.80
2019-02-06T13:32:06.662Z,71.70
2019-02-06T13:34:37.053Z,73.20
2019-02-06T13:37:07.421Z,75.00
2019-02-06T13:39:37.817Z,73.80
2019-02-06T13:42:08.178Z,75.10
2019-02-06T13:44:41.424Z,75.20
2019-02-06T13:47:10.661Z,75.30
2019-02-06T13:49:41.020Z,76.80
2019-02-06T13:52:11.408Z,76.80
2019-02-06T13:54:42.142Z,77.80
2019-02-06T13:57:12.533Z,78.80
2019-02-06T13:59:42.895Z,79.90
2019-02-06T14:02:13.275Z,81.20
2019-02-06T14:04:43.638Z,82.30
2019-02-06T14:07:14.023Z,82.90
2019-02-06T14:09:44.380Z,84.00
2019-02-06T14:12:14.768Z,85.90
2019-02-06T14:14:45.119Z,85.80
2019-02-06T14:17:18.229Z,87.30
2019-02-06T14:19:47.576Z,88.60
2019-02-06T14:22:18.228Z,89.50
2019-02-06T14:24:48.666Z,89.80
2019-02-06T14:27:32.349Z,90.40
2019-02-06T14:30:36.485Z,90.80
2019-02-06T14:33:17.195Z,90.70
2019-02-06T14:36:17.517Z,91.10
2019-02-06T14:39:14.903Z,91.20
2019-02-06T14:41:53.415Z,92.10
2019-02-06T14:44:44.122Z,92.10
2019-02-06T14:47:33.818Z,92.50
2019-02-06T14:50:31.721Z,92.80
2019-02-06T14:53:21.525Z,93.00
2019-02-06T14:56:17.715Z,93.60
2019-02-06T14:59:34.572Z,93.90
2019-02-06T15:02:32.128Z,94.40
2019-02-06T15:05:24.647Z,94.60
2019-02-06T15:08:23.500Z,95.10
2019-02-06T15:11:19.840Z,95.20
2019-02-06T15:14:04.670Z,95.40
2019-02-06T15:17:06.346Z,95.60
2019-02-06T15:19:47.440Z,95.80
2019-02-06T15:22:49.357Z,96.10
2019-02-06T15:25:26.941Z,96.40
2019-02-06T15:28:19.600Z,96.80
2019-02-06T15:31:18.492Z,96.60
2019-02-06T15:34:15.673Z,97.00
2019-02-06T15:37:14.820Z,97.30
2019-02-06T15:40:27.681Z,97.30
2019-02-06T15:43:23.974Z,97.40
2019-02-06T15:46:04.801Z,97.40
2019-02-06T15:48:58.645Z,97.80
2019-02-06T15:51:59.082Z,97.90
2019-02-06T15:55:25.736Z,98.40
2019-02-06T15:58:12.589Z,98.40
2019-02-06T16:01:15.342Z,98.70
2019-02-06T16:04:30.345Z,99.00
2019-02-06T16:07:19.774Z,99.30
2019-02-06T16:10:31.428Z,99.20
2019-02-06T16:13:27.144Z,99.10
2019-02-06T16:16:02.221Z,99.40
2019-02-06T16:19:06.054Z,99.40
2019-02-06T16:21:53.492Z,99.50
2019-02-06T16:24:48.603Z,99.70
2019-02-06T16:27:26.289Z,99.50
2019-02-06T16:30:13.285Z,99.60
2019-02-06T16:32:53.747Z,99.70
2019-02-06T16:35:52.279Z,99.70
2019-02-06T16:38:35.493Z,99.70
2019-02-06T16:41:31.506Z,99.80
2019-02-06T16:44:24.282Z,99.80
2019-02-06T16:47:26.914Z,99.80
2019-02-06T16:50:24.499Z,99.90
2019-02-06T16:53:26.356Z,99.80
2019-02-06T16:56:25.079Z,99.90
2019-02-06T16:59:17.858Z,99.90
2019-02-06T17:02:18.579Z,99.90
2019-02-06T17:05:30.930Z,99.90
2019-02-06T17:08:25.504Z,99.90
2019-02-06T17:11:35.586Z,99.90
2019-02-06T17:14:19.148Z,99.70
2019-02-06T17:17:05.841Z,99.90
2019-02-06T17:19:46.961Z,99.90
2019-02-06T17:23:03.950Z,99.90
2019-02-06T17:25:53.515Z,99.90
2019-02-06T17:28:36.665Z,99.90
2019-02-06T17:31:41.489Z,99.90
2019-02-06T17:34:39.367Z,99.90
2019-02-06T17:37:39.492Z,99.90
2019-02-06T17:40:31.002Z,99.70
2019-02-06T17:43:18.094Z,99.70
2019-02-06T17:46:22.666Z,99.90
2019-02-06T17:49:34.328Z,99.40
2019-02-06T17:52:38.124Z,99.60
2019-02-06T17:55:17.472Z,99.60
2019-02-06T17:57:50.322Z,99.10
2019-02-06T18:00:31.638Z,99.10
2019-02-06T18:03:06.849Z,99.10
2019-02-06T18:05:40.153Z,98.90
2019-02-06T18:08:09.839Z,98.80
2019-02-06T18:10:41.371Z,98.90
2019-02-06T18:13:13.830Z,98.60
2019-02-06T18:15:44.218Z,98.70
2019-02-06T18:18:15.424Z,98.60
2019-02-06T18:20:46.092Z,98.60
2019-02-06T18:23:16.480Z,98.40
2019-02-06T18:25:46.840Z,98.30
2019-02-06T18:28:17.213Z,98.40
2019-02-06T18:30:47.639Z,98.40
2019-02-06T18:33:18.850Z,98.20
2019-02-06T18:35:50.038Z,97.90
2019-02-06T18:38:20.399Z,97.90
2019-02-06T18:40:50.863Z,98.00
2019-02-06T18:43:22.185Z,98.10
2019-02-06T18:45:52.648Z,98.00
2019-02-06T18:48:25.093Z,98.00
2019-02-06T18:50:55.828Z,97.90
2019-02-06T18:53:26.187Z,98.00
2019-02-06T18:55:56.596Z,98.10
2019-02-06T18:58:27.574Z,97.80
2019-02-06T19:00:58.122Z,97.90
2019-02-06T19:03:33.137Z,97.30
2019-02-06T19:06:03.648Z,97.60
2019-02-06T19:08:34.426Z,97.40
2019-02-06T19:11:05.288Z,97.70
2019-02-06T19:13:36.522Z,97.60
2019-02-06T19:16:07.154Z,97.90
2019-02-06T19:18:37.592Z,97.80
2019-02-06T19:21:07.981Z,97.80
2019-02-06T19:23:38.718Z,97.60
2019-02-06T19:26:09.107Z,97.60
2019-02-06T19:28:40.130Z,97.60
2019-02-06T19:31:10.963Z,97.90
2019-02-06T19:33:41.341Z,97.90
2019-02-06T19:36:11.734Z,98.00
2019-02-06T19:38:42.481Z,98.00
2019-02-06T19:41:12.864Z,97.90
2019-02-06T19:43:43.315Z,97.80
2019-02-06T19:46:13.704Z,98.00
2019-02-06T19:48:44.071Z,98.10
2019-02-06T19:51:14.458Z,97.90
2019-02-06T19:53:45.097Z,98.00
2019-02-06T19:56:15.487Z,98.20
2019-02-06T19:58:45.847Z,98.40
2019-02-06T20:01:16.241Z,98.40
2019-02-06T20:03:46.708Z,99.00
2019-02-06T20:08:58.625Z,99.20
2019-02-06T20:11:29.027Z,98.90
2019-02-06T20:13:59.389Z,99.20
2019-02-06T20:16:29.781Z,99.40
2019-02-06T20:19:00.216Z,99.70
2019-02-06T20:21:30.608Z,99.40
2019-02-06T20:24:01.247Z,99.40
2019-02-06T20:26:31.649Z,99.20
2019-02-06T20:29:01.995Z,99.60
2019-02-06T20:31:32.394Z,99.50
2019-02-06T20:34:02.749Z,99.60
2019-02-06T20:36:33.135Z,99.60
2019-02-06T20:39:05.407Z,99.60
2019-02-06T20:41:36.171Z,99.60
2019-02-06T20:44:06.697Z,99.70
2019-02-06T20:46:37.084Z,99.50
2019-02-06T20:49:07.611Z,99.40
2019-02-06T20:51:38.004Z,99.40
2019-02-06T20:54:08.739Z,99.50
2019-02-06T20:56:39.130Z,99.70
2019-02-06T20:59:09.487Z,99.80
2019-02-06T21:01:39.878Z,99.70
2019-02-06T21:04:10.238Z,99.80
2019-02-06T21:06:54.354Z,99.90
2019-02-06T21:09:24.715Z,99.90
2019-02-06T21:11:55.099Z,99.90
2019-02-06T21:14:25.467Z,99.90
2019-02-06T21:16:55.857Z,99.90
2019-02-06T21:19:28.184Z,99.90
2019-02-06T21:21:58.305Z,99.90
2019-02-06T21:24:28.659Z,99.90
2019-02-06T21:26:59.058Z,99.90
2019-02-06T21:29:29.421Z,99.90
2019-02-06T21:31:59.808Z,99.90
2019-02-06T21:34:30.543Z,99.90
2019-02-06T21:37:00.919Z,99.90
2019-02-06T21:39:31.282Z,99.90
2019-02-06T21:42:01.675Z,99.90
2019-02-06T21:44:32.036Z,99.90
2019-02-06T21:47:02.421Z,99.90
2019-02-06T21:49:33.158Z,99.90
2019-02-06T21:52:03.715Z,99.70
2019-02-06T21:54:34.084Z,99.90
2019-02-06T21:57:04.608Z,99.60
2019-02-06T21:59:34.990Z,99.60
2019-02-06T22:02:05.714Z,99.90
2019-02-06T22:04:36.074Z,99.90
2019-02-06T22:07:06.469Z,99.60
2019-02-06T22:09:36.822Z,99.50
2019-02-06T22:12:07.214Z,99.80
2019-02-06T22:14:37.581Z,99.60
2019-02-06T22:17:09.237Z,99.90
2019-02-06T22:19:39.618Z,99.70
2019-02-06T22:22:09.998Z,99.40
2019-02-06T22:24:40.360Z,99.70
2019-02-06T22:27:10.726Z,99.60
2019-02-06T22:29:41.285Z,99.20
2019-02-06T22:32:11.753Z,99.00
2019-02-06T22:34:42.157Z,99.20
2019-02-06T22:37:12.526Z,99.70
2019-02-06T22:39:42.933Z,99.50
2019-02-06T22:42:13.280Z,99.90
2019-02-06T22:44:43.742Z,99.90
2019-02-06T22:47:14.112Z,99.80
2019-02-06T22:49:44.495Z,99.90
2019-02-06T22:52:15.029Z,99.90
2019-02-06T22:54:45.412Z,99.90
2019-02-06T22:57:16.047Z,99.90
2019-02-06T22:59:46.430Z,99.90
2019-02-06T23:02:16.793Z,99.60
2019-02-06T23:04:47.207Z,99.20
2019-02-06T23:07:17.565Z,98.80
2019-02-06T23:09:47.946Z,98.80
2019-02-06T23:12:18.315Z,99.20
2019-02-06T23:14:48.763Z,99.40
2019-02-06T23:17:19.123Z,99.10
2019-02-06T23:19:49.502Z,98.80
2019-02-06T23:22:19.866Z,98.90
2019-02-06T23:24:50.555Z,98.90
2019-02-06T23:27:20.915Z,98.80
2019-02-06T23:29:52.266Z,98.50
2019-02-06T23:32:22.621Z,98.70
2019-02-06T23:34:53.969Z,98.50
2019-02-06T23:37:24.611Z,98.60
2019-02-06T23:39:54.986Z,98.80
2019-02-06T23:42:25.350Z,98.70
2019-02-06T23:44:55.737Z,98.70
2019-02-06T23:47:26.103Z,98.90
2019-02-06T23:49:57.456Z,99.80
2019-02-06T23:52:27.817Z,99.60
2019-02-06T23:54:58.205Z,99.50
2019-02-06T23:57:28.574Z,99.80
2019-02-06T23:59:58.952Z,99.90
